createdAt,value
2022-12-19T10:49:21.850Z,-1.94
2022-12-19T10:52:00.602Z,-1.90
2022-12-19T10:54:41.821Z,-1.87
2022-12-19T10:57:29.458Z,-1.84
2022-12-19T11:00:17.419Z,-1.82
2022-12-19T11:02:52.529Z,-1.82
2022-12-19T11:05:57.721Z,-1.78
2022-12-19T11:08:34.929Z,-1.79
2022-12-19T11:12:12.629Z,-1.79
2022-12-19T11:17:42.890Z,-1.79
2022-12-19T11:21:42.363Z,-1.79
2022-12-19T11:29:15.212Z,-1.78
2022-12-19T11:29:26.911Z,-1.76
2022-12-19T11:30:45.502Z,-1.75
2022-12-19T11:30:46.256Z,-1.75
2022-12-19T11:34:36.835Z,-1.66
2022-12-19T11:37:32.750Z,-1.68
2022-12-19T11:40:06.148Z,-1.72
2022-12-19T11:42:39.902Z,-1.75
2022-12-19T11:45:23.683Z,-1.72
2022-12-19T11:48:05.216Z,-1.74
2022-12-19T11:50:58.658Z,-1.74
2022-12-19T11:53:33.207Z,-1.73
2022-12-19T11:56:15.940Z,-1.72
2022-12-19T11:58:41.571Z,-1.70
2022-12-19T12:01:26.816Z,-1.69
2022-12-19T12:04:26.871Z,-1.65
2022-12-19T12:06:56.441Z,-1.61
2022-12-19T12:12:54.180Z,-1.64
2022-12-19T12:18:48.400Z,-1.65
2022-12-19T12:26:10.686Z,-1.63
2022-12-19T12:30:06.337Z,-1.58
2022-12-19T12:31:26.566Z,-1.63
2022-12-19T12:31:32.250Z,-1.57
2022-12-19T12:31:41.610Z,-1.61
2022-12-19T12:31:53.469Z,-1.56
2022-12-19T12:35:10.907Z,-1.60
2022-12-19T12:38:43.060Z,-1.61
2022-12-19T12:41:57.816Z,-1.61
2022-12-19T12:44:32.598Z,-1.59
2022-12-19T12:47:07.331Z,-1.56
2022-12-19T12:49:44.121Z,-1.53
2022-12-19T12:52:29.267Z,-1.50
2022-12-19T12:54:58.563Z,-1.52
2022-12-19T12:57:36.066Z,-1.52
2022-12-19T13:00:27.667Z,-1.53
2022-12-19T13:03:15.543Z,-1.57
2022-12-19T13:06:27.063Z,-1.59
2022-12-19T13:09:15.873Z,-1.60
2022-12-19T13:12:07.951Z,-1.62
2022-12-19T13:14:41.977Z,-1.65
2022-12-19T13:17:35.371Z,-1.64
2022-12-19T13:20:16.329Z,-1.66
2022-12-19T13:23:05.027Z,-1.70
2022-12-19T13:25:39.863Z,-1.74
2022-12-19T13:28:30.431Z,-1.77
2022-12-19T13:31:19.542Z,-1.80
2022-12-19T13:33:57.316Z,-1.85
2022-12-19T13:39:48.863Z,-1.86
2022-12-19T13:40:01.049Z,-1.88
2022-12-19T13:42:33.794Z,-1.94
2022-12-19T13:45:11.959Z,-2.00
2022-12-19T13:47:43.824Z,-2.04
2022-12-19T13:50:41.320Z,-2.07
2022-12-19T13:53:18.100Z,-2.08
2022-12-19T13:55:50.545Z,-2.12
2022-12-19T13:58:28.930Z,-2.14
2022-12-19T14:01:02.937Z,-2.17
2022-12-19T14:03:41.611Z,-2.18
2022-12-19T14:06:25.359Z,-2.21
2022-12-19T14:11:24.128Z,-2.24
2022-12-19T14:12:20.116Z,-2.27
2022-12-19T14:14:25.758Z,-2.24
2022-12-19T14:16:52.613Z,-2.25
2022-12-19T14:19:25.695Z,-2.30
2022-12-19T14:22:07.141Z,-2.37
2022-12-19T14:24:25.649Z,-2.43
2022-12-19T14:28:24.405Z,-2.47
2022-12-19T14:30:28.325Z,-2.49
2022-12-19T14:33:06.050Z,-2.47
2022-12-19T14:36:04.909Z,-2.45
2022-12-19T14:39:20.060Z,-2.43
2022-12-19T14:40:21.518Z,-2.40
2022-12-19T14:43:57.519Z,-2.40
2022-12-19T14:51:25.146Z,-2.40
2022-12-19T14:54:08.207Z,-2.37
2022-12-19T14:54:33.732Z,-2.36
2022-12-19T14:56:59.911Z,-2.39
2022-12-19T14:59:35.432Z,-2.46
2022-12-19T15:02:11.663Z,-2.52
2022-12-19T15:04:52.575Z,-2.53
2022-12-19T15:07:21.412Z,-2.58
2022-12-19T15:11:05.180Z,-2.65
2022-12-19T15:14:51.839Z,-2.73
2022-12-19T15:15:48.471Z,-2.82
2022-12-19T15:18:38.902Z,-2.96
2022-12-19T15:21:12.841Z,-3.02
2022-12-19T15:23:44.196Z,-3.02
2022-12-19T15:26:17.893Z,-3.07
2022-12-19T15:28:49.885Z,-3.10
2022-12-19T15:31:38.899Z,-3.09
2022-12-19T15:34:41.913Z,-3.04
2022-12-19T15:36:59.916Z,-3.00
2022-12-19T15:39:30.116Z,-2.94
2022-12-19T15:41:59.958Z,-2.91
2022-12-19T15:44:36.622Z,-2.83
2022-12-19T15:47:09.641Z,-2.82
2022-12-19T15:49:38.267Z,-2.83
2022-12-19T15:52:18.019Z,-2.83
2022-12-19T15:54:49.278Z,-2.85
2022-12-19T15:57:38.611Z,-2.93
2022-12-19T16:00:13.826Z,-2.97
2022-12-19T16:03:21.046Z,-2.96
2022-12-19T16:05:16.645Z,-2.97
2022-12-19T16:07:45.396Z,-2.93
2022-12-19T16:10:14.976Z,-2.94
2022-12-19T16:12:55.668Z,-3.02
2022-12-19T16:15:33.326Z,-3.12
2022-12-19T16:18:06.427Z,-3.29
2022-12-19T16:20:37.259Z,-3.39
2022-12-19T16:23:06.930Z,-3.39
2022-12-19T16:25:50.651Z,-3.42
2022-12-19T16:28:34.365Z,-3.53
2022-12-19T16:31:15.920Z,-3.65
2022-12-19T16:33:48.997Z,-3.76
2022-12-19T16:36:19.537Z,-3.87
2022-12-19T16:38:48.871Z,-3.93
2022-12-19T16:41:27.976Z,-3.96
2022-12-19T16:43:57.108Z,-3.94
2022-12-19T16:46:31.164Z,-3.95
2022-12-19T16:49:02.869Z,-4.01
2022-12-19T16:51:32.370Z,-4.03
2022-12-19T16:54:11.566Z,-4.05
2022-12-19T16:56:50.623Z,-4.08
2022-12-19T16:59:29.836Z,-4.08
2022-12-19T17:01:58.956Z,-4.05
2022-12-19T17:04:30.672Z,-4.09
2022-12-19T17:07:01.125Z,-4.10
2022-12-19T17:09:31.703Z,-4.11
2022-12-19T17:12:01.092Z,-4.16
2022-12-19T17:14:31.841Z,-4.17
2022-12-19T17:17:01.253Z,-4.13
2022-12-19T17:19:37.684Z,-4.06
2022-12-19T17:22:16.954Z,-3.99
2022-12-19T17:24:46.328Z,-3.90
2022-12-19T17:27:17.379Z,-3.82
2022-12-19T17:29:46.969Z,-3.78
2022-12-19T17:32:23.277Z,-3.79
2022-12-19T17:34:47.197Z,-3.79
2022-12-19T17:37:17.216Z,-3.81
2022-12-19T17:39:46.415Z,-3.81
2022-12-19T17:42:21.400Z,-3.81
2022-12-19T17:44:51.562Z,-3.77
2022-12-19T17:47:20.991Z,-3.75
2022-12-19T17:49:50.683Z,-3.73
2022-12-19T17:52:20.062Z,-3.70
2022-12-19T17:54:48.659Z,-3.66
2022-12-19T17:57:18.390Z,-3.64
2022-12-19T17:59:47.716Z,-3.66
2022-12-19T18:02:26.569Z,-3.67
2022-12-19T18:04:57.689Z,-3.70
2022-12-19T18:07:28.233Z,-3.67
2022-12-19T18:09:57.267Z,-3.66
2022-12-19T18:12:26.477Z,-3.64
2022-12-19T18:14:55.939Z,-3.60
2022-12-19T18:17:25.630Z,-3.61
2022-12-19T18:19:55.087Z,-3.59
2022-12-19T18:22:24.539Z,-3.63
2022-12-19T18:24:53.600Z,-3.63
2022-12-19T18:27:22.681Z,-3.64
2022-12-19T18:29:51.499Z,-3.68
2022-12-19T18:32:22.170Z,-3.74
2022-12-19T18:34:52.038Z,-3.78
2022-12-19T18:37:21.331Z,-3.83
2022-12-19T18:39:53.193Z,-3.86
2022-12-19T18:42:24.902Z,-3.86
2022-12-19T18:44:54.046Z,-3.86
2022-12-19T18:47:25.321Z,-3.87
2022-12-19T18:49:55.234Z,-3.88
2022-12-19T18:52:26.740Z,-3.91
2022-12-19T18:54:56.205Z,-3.92
2022-12-19T18:57:26.518Z,-3.95
2022-12-19T18:59:55.377Z,-3.98
2022-12-19T19:02:26.842Z,-4.00
2022-12-19T19:04:58.685Z,-4.03
2022-12-19T19:07:30.426Z,-4.03
2022-12-19T19:10:00.045Z,-4.05
2022-12-19T19:12:33.422Z,-4.07
2022-12-19T19:15:03.012Z,-4.09
2022-12-19T19:17:31.712Z,-4.11
2022-12-19T19:20:02.423Z,-4.11
2022-12-19T19:22:32.186Z,-4.13
2022-12-19T19:25:01.635Z,-4.12
2022-12-19T19:27:31.409Z,-4.14
2022-12-19T19:30:00.836Z,-4.18
2022-12-19T19:32:30.604Z,-4.19
2022-12-19T19:35:00.671Z,-4.20
2022-12-19T19:37:30.735Z,-4.22
2022-12-19T19:39:59.700Z,-4.23
2022-12-19T19:42:28.465Z,-4.23
2022-12-19T19:45:01.244Z,-4.24
2022-12-19T19:47:34.084Z,-4.24
2022-12-19T19:50:05.507Z,-4.23
2022-12-19T19:52:34.585Z,-4.24
2022-12-19T19:55:05.552Z,-4.23
2022-12-19T19:57:35.934Z,-4.28
2022-12-19T20:00:07.327Z,-4.28
2022-12-19T20:02:40.445Z,-4.26
2022-12-19T20:05:10.241Z,-4.26
2022-12-19T20:07:40.132Z,-4.27
2022-12-19T20:10:10.945Z,-4.25
2022-12-19T20:12:40.275Z,-4.26
2022-12-19T20:15:09.951Z,-4.27
2022-12-19T20:17:40.783Z,-4.27
2022-12-19T20:20:12.138Z,-4.27
2022-12-19T20:22:42.649Z,-4.29
2022-12-19T20:25:12.030Z,-4.31
2022-12-19T20:27:42.758Z,-4.30
2022-12-19T20:30:14.117Z,-4.31
2022-12-19T20:32:43.477Z,-4.30
2022-12-19T20:35:15.044Z,-4.31
2022-12-19T20:37:44.895Z,-4.32
2022-12-19T20:40:14.869Z,-4.31
2022-12-19T20:42:44.479Z,-4.31
2022-12-19T20:45:14.499Z,-4.29
2022-12-19T20:47:43.515Z,-4.26
2022-12-19T20:50:15.344Z,-4.26
2022-12-19T20:52:45.643Z,-4.26
2022-12-19T20:55:15.824Z,-4.29
2022-12-19T20:57:45.494Z,-4.32
2022-12-19T21:00:18.085Z,-4.35
2022-12-19T21:03:25.627Z,-4.36
2022-12-19T21:05:20.600Z,-4.38
2022-12-19T21:07:50.925Z,-4.41
2022-12-19T21:10:20.430Z,-4.46
2022-12-19T21:12:50.086Z,-4.45
2022-12-19T21:15:19.422Z,-4.46
2022-12-19T21:17:48.588Z,-4.48
2022-12-19T21:20:17.957Z,-4.52
2022-12-19T21:22:47.663Z,-4.52
2022-12-19T21:25:16.755Z,-4.62
2022-12-19T21:27:46.699Z,-4.69
2022-12-19T21:30:16.140Z,-4.76
2022-12-19T21:32:46.733Z,-4.78
2022-12-19T21:35:16.503Z,-4.74
2022-12-19T21:37:47.623Z,-4.72
2022-12-19T21:40:18.093Z,-4.60
2022-12-19T21:42:47.018Z,-4.60
2022-12-19T21:45:17.618Z,-4.57
2022-12-19T21:47:47.362Z,-4.56
2022-12-19T21:50:16.306Z,-4.59
2022-12-19T21:52:45.253Z,-4.69
2022-12-19T21:55:14.296Z,-4.76
2022-12-19T21:57:43.607Z,-4.85
2022-12-19T22:00:14.128Z,-4.89
2022-12-19T22:03:01.558Z,-4.97
2022-12-19T22:05:15.285Z,-5.09
2022-12-19T22:07:44.884Z,-5.21
2022-12-19T22:10:15.218Z,-5.29
2022-12-19T22:12:44.485Z,-5.30
2022-12-19T22:15:14.453Z,-5.30
2022-12-19T22:17:43.551Z,-5.28
2022-12-19T22:20:13.963Z,-5.29
2022-12-19T22:22:43.567Z,-5.36
2022-12-19T22:25:12.436Z,-5.36
2022-12-19T22:27:41.629Z,-5.38
2022-12-19T22:30:11.536Z,-5.39
2022-12-19T22:32:41.321Z,-5.37
2022-12-19T22:35:10.408Z,-5.37
2022-12-19T22:37:39.845Z,-5.36
2022-12-19T22:40:10.704Z,-5.32
2022-12-19T22:42:40.185Z,-5.33
2022-12-19T22:45:10.746Z,-5.33
2022-12-19T22:47:42.267Z,-5.30
2022-12-19T22:50:11.316Z,-5.26
2022-12-19T22:52:40.494Z,-5.18
2022-12-19T22:55:11.158Z,-5.14
2022-12-19T22:57:41.671Z,-5.07
2022-12-19T23:00:13.053Z,-4.88
2022-12-19T23:02:43.592Z,-4.88
2022-12-19T23:05:13.612Z,-4.77
2022-12-19T23:07:43.277Z,-4.70
2022-12-19T23:10:14.241Z,-4.67
2022-12-19T23:12:43.574Z,-4.63
2022-12-19T23:15:12.995Z,-4.56
2022-12-19T23:17:42.224Z,-4.50
2022-12-19T23:20:12.499Z,-4.50
2022-12-19T23:22:41.515Z,-4.55
2022-12-19T23:25:10.809Z,-4.59
2022-12-19T23:27:41.091Z,-4.66
2022-12-19T23:30:11.135Z,-4.71
2022-12-19T23:32:47.058Z,-4.81
2022-12-19T23:35:12.335Z,-4.81
2022-12-19T23:37:46.291Z,-4.80
2022-12-19T23:40:17.630Z,-4.84
2022-12-19T23:42:47.277Z,-4.88
2022-12-19T23:45:18.492Z,-4.90
2022-12-19T23:47:49.625Z,-4.91
2022-12-19T23:50:20.060Z,-4.94
2022-12-19T23:52:48.805Z,-4.96
2022-12-19T23:55:18.753Z,-4.99
2022-12-19T23:57:48.367Z,-5.03
